Latest Weather Observations for Cooktown

IDQ60801

Issued at 7:05 am EST Wednesday 3 September 2014 (issued every 30 minutes, with the page automatically refreshed every 10 minutes)

About weather observations | Map of weather stations | Latest weather observations for QLD | Other Formats
Station Details ID: 031209 Name: COOKTOWN AIRPORT Lat: -15.45 Lon: 145.19 Height: 4.8 m
Data from the previous 72 hours. | See also: Recent months at Cooktown
Date/Time
EST
Temp
°C
App
Temp
°C
Dew
Point
Rel
Hum
%
Delta-T
°C
Wind Press
QNH
hPa
Press
MSL
hPa
Rain
since 9 am
mm
Dir
 
Spd
km/h
Gust
km/h
Spd
kts
Gust
kts
03/07:00am 11.8 10.9 11.4 97 0.2 NW 7 9 4 5 1015.0 - 0.0
03/06:42am 11.9 12.4 11.5 97 0.2 WNW 0 6 0 3 1014.9 - 0.0
03/06:30am 12.1 11.9 11.7 97 0.2 SW 4 7 2 4 1014.7 - 0.0
03/06:00am 11.3 11.3 11.1 99 0.1 W 2 6 1 3 1014.3 1014.1 0.0
03/05:59am 11.2 11.6 11.2 100 0.0 CALM 0 6 0 3 1014.2 - 0.0
03/05:30am 11.0 10.1 10.8 99 0.1 W 6 7 3 4 1013.8 - 0.0
03/05:00am 11.6 12.0 11.2 97 0.2 CALM 0 0 0 0 1013.7 - 0.0
03/04:32am 12.4 11.8 11.8 96 0.3 NW 6 7 3 4 1013.5 - 0.0
03/04:30am 12.3 11.7 11.7 96 0.3 NW 6 7 3 4 1013.5 - 0.0
03/04:00am 12.4 13.0 11.8 96 0.3 CALM 0 6 0 3 1013.4 - 0.0
03/03:30am 13.0 13.3 12.3 95 0.4 WNW 2 7 1 4 1013.7 - 0.0
03/03:00am 13.3 13.1 12.9 97 0.2 NW 6 7 3 4 1013.7 1013.6 0.0
03/02:31am 13.4 14.3 13.0 97 0.2 CALM 0 0 0 0 1014.0 - 0.0
03/02:30am 13.4 14.3 13.0 97 0.2 CALM 0 0 0 0 1014.0 - 0.0
03/02:07am 13.6 14.6 13.1 97 0.3 CALM 0 0 0 0 1014.3 - 0.0
03/02:00am 13.3 14.1 12.7 96 0.3 NW 0 0 0 0 1014.5 - 0.0
03/01:52am 13.7 14.7 13.2 97 0.3 CALM 0 4 0 2 1014.5 - 0.0
03/01:30am 14.8 15.0 14.3 97 0.3 NW 6 7 3 4 1014.8 - 0.0
03/01:00am 14.4 14.5 14.0 97 0.2 WNW 6 9 3 5 1015.1 - 0.0
03/12:30am 15.0 15.3 14.5 97 0.3 W 6 7 3 4 1015.2 - 0.0
03/12:00am 15.1 14.7 14.2 94 0.5 NW 9 9 5 5 1015.7 1015.6 0.0
 
Date/Time
EST
Temp
°C
App
Temp
°C
Dew
Point
Rel
Hum
%
Delta-T
°C
Wind Press
QNH
hPa
Press
MSL
hPa
Rain
since 9 am
mm
Dir
 
Spd
km/h
Gust
km/h
Spd
kts
Gust
kts
02/11:30pm 14.9 16.3 14.5 97 0.2 WNW 0 4 0 2 1015.9 - 0.0
02/11:00pm 16.1 16.2 15.4 96 0.4 WNW 9 9 5 5 1016.1 - 0.0
02/10:30pm 16.0 17.7 15.3 96 0.4 CALM 0 0 0 0 1016.1 - 0.0
02/10:00pm 16.6 17.2 15.7 94 0.5 WNW 7 9 4 5 1016.2 - 0.0
02/09:30pm 16.4 18.2 15.4 94 0.6 CALM 0 6 0 3 1016.2 - 0.0
02/09:00pm 18.3 19.1 15.8 85 1.5 SE 6 9 3 5 1016.1 1016.0 0.0
02/08:30pm 18.9 19.7 16.4 85 1.5 SE 7 9 4 5 1015.7 - 0.0
02/08:00pm 20.4 21.0 16.9 80 2.1 SE 9 15 5 8 1015.5 - 0.0
02/07:30pm 20.7 20.6 16.9 79 2.3 ESE 13 20 7 11 1015.2 - 0.0
02/07:00pm 20.3 20.1 16.8 80 2.1 ESE 13 17 7 9 1014.8 - 0.0
02/06:30pm 21.2 20.7 16.9 76 2.6 ESE 15 22 8 12 1014.2 - 0.0
02/06:00pm 21.6 20.9 16.3 72 3.2 ESE 15 22 8 12 1014.0 1013.9 0.0
02/05:30pm 22.8 21.3 16.4 67 3.9 E 19 26 10 14 1014.0 - 0.0
02/05:00pm 23.5 21.1 16.3 64 4.4 E 24 33 13 18 1014.0 - 0.0
02/04:30pm 24.0 21.5 16.1 61 4.8 E 24 32 13 17 1013.8 - 0.0
02/04:00pm 24.4 20.9 15.6 58 5.3 E 28 33 15 18 1013.8 - 0.0
02/03:30pm 24.9 22.3 16.0 57 5.4 E 24 33 13 18 1014.0 - 0.0
02/03:00pm 25.4 22.7 15.7 55 5.9 E 24 35 13 19 1014.2 1014.1 0.0
02/02:30pm 25.7 22.6 15.5 53 6.2 E 26 35 14 19 1014.4 - 0.0
02/02:00pm 25.2 21.1 15.0 53 6.1 E 30 37 16 20 1014.7 - 0.0
02/01:30pm 25.3 21.3 15.2 53 6.1 E 30 39 16 21 1015.2 - 0.0
02/01:00pm 25.6 21.1 14.9 51 6.4 E 32 41 17 22 1015.5 - 0.0
02/12:30pm 25.8 21.4 12.9 44 7.5 E 28 35 15 19 1015.8 - 0.0
02/12:00pm 26.4 22.2 11.2 38 8.6 E 24 30 13 16 1016.3 1016.2 0.0
02/11:30am 25.6 21.3 10.8 39 8.3 E 24 33 13 18 1016.7 - 0.0
02/11:00am 26.1 21.9 12.4 42 7.9 E 26 33 14 18 1017.1 - 0.0
02/10:30am 25.2 22.4 13.2 47 7.0 ESE 20 28 11 15 1017.4 - 0.0
02/10:00am 25.0 21.8 13.1 47 6.9 ESE 22 33 12 18 1017.7 - 0.0
02/09:30am 24.6 21.7 13.9 51 6.3 E 22 33 12 18 1017.7 - 0.0
02/09:00am 23.2 22.9 14.4 57 5.2 SSE 9 15 5 8 1017.7 1017.6 0.0
02/08:30am 21.9 21.7 14.8 64 4.2 S 9 11 5 6 1017.6 - 0.0
02/08:00am 19.4 19.9 14.9 75 2.6 W 6 7 3 4 1017.4 - 0.0
02/07:30am 17.0 17.8 14.7 86 1.3 WNW 4 7 2 4 1017.2 - 0.0
02/07:00am 14.4 13.8 13.5 94 0.5 WNW 9 11 5 6 1016.6 - 0.0
02/06:30am 14.4 14.2 13.5 94 0.5 WNW 7 9 4 5 1016.4 - 0.0
02/06:00am 14.3 15.3 13.2 93 0.6 CALM 0 0 0 0 1016.3 - 0.0
02/05:30am 15.3 15.3 13.7 90 0.9 NW 6 7 3 4 1016.2 - 0.0
02/05:00am 16.1 16.2 14.0 87 1.2 WNW 6 9 3 5 1015.8 - 0.0
02/04:30am 18.2 18.4 14.7 80 2.0 S 7 9 4 5 1016.0 - 0.0
02/04:00am 19.5 19.7 14.3 72 3.0 SSE 6 9 3 5 1015.9 - 0.0
02/03:30am 20.4 19.7 14.2 67 3.6 ESE 11 19 6 10 1016.0 - 0.0
02/03:00am 20.9 19.7 14.0 64 4.0 SE 13 22 7 12 1016.1 1016.0 0.0
02/02:30am 21.0 19.8 14.1 64 4.0 ESE 13 20 7 11 1016.0 - 0.0
02/02:00am 20.8 19.7 14.3 66 3.8 ESE 13 24 7 13 1016.1 - 0.0
02/01:30am 21.2 20.1 14.3 64 4.0 SE 13 20 7 11 1016.2 - 0.0
02/01:00am 21.3 20.1 14.1 63 4.2 SE 13 24 7 13 1016.5 - 0.0
02/12:30am 21.6 20.2 14.4 63 4.2 ESE 15 24 8 13 1016.7 - 0.0
02/12:00am 21.8 19.6 14.3 62 4.4 ESE 19 28 10 15 1016.9 1016.8 0.0
 
Date/Time
EST
Temp
°C
App
Temp
°C
Dew
Point
Rel
Hum
%
Delta-T
°C
Wind Press
QNH
hPa
Press
MSL
hPa
Rain
since 9 am
mm
Dir
 
Spd
km/h
Gust
km/h
Spd
kts
Gust
kts
01/11:30pm 22.1 19.5 13.8 59 4.8 ESE 20 28 11 15 1017.2 - 0.0
01/11:00pm 21.7 19.8 14.1 62 4.4 ESE 17 24 9 13 1017.3 - 0.0
01/10:30pm 22.1 19.7 14.4 61 4.5 ESE 20 28 11 15 1017.3 - 0.0
01/10:00pm 22.2 19.8 14.5 61 4.5 ESE 20 33 11 18 1017.4 - 0.0
01/09:30pm 22.3 19.6 14.5 61 4.6 ESE 22 33 12 18 1017.4 - 0.0
01/09:00pm 22.2 20.0 14.3 61 4.6 ESE 19 32 10 17 1017.1 1016.9 0.0
01/08:30pm 21.9 19.8 14.6 63 4.3 ESE 19 33 10 18 1016.8 - 0.0
01/08:00pm 22.2 19.5 14.7 62 4.4 ESE 22 35 12 19 1016.7 - 0.0
01/07:30pm 22.2 20.3 15.7 66 3.9 ESE 20 30 11 16 1016.2 - 0.0
01/07:00pm 22.3 20.7 16.0 67 3.8 ESE 19 28 10 15 1015.8 - 0.0
01/06:30pm 22.3 20.8 16.7 70 3.4 ESE 20 32 11 17 1015.3 - 0.0
01/06:00pm 22.5 20.9 16.4 68 3.7 ESE 20 32 11 17 1015.2 1015.1 0.0
01/05:30pm 23.1 21.5 16.4 66 4.1 ESE 20 30 11 16 1014.8 - 0.0
01/05:00pm 23.7 20.9 16.3 63 4.5 ESE 26 41 14 22 1014.2 - 0.0
01/04:30pm 24.4 21.9 16.2 60 5.0 ESE 24 35 13 19 1014.0 - 0.0
01/04:00pm 24.4 21.9 16.2 60 5.0 ESE 24 35 13 19 1013.9 - 0.0
01/03:30pm 24.6 20.9 15.9 58 5.3 ESE 30 41 16 22 1014.0 - 0.0
01/03:00pm 25.1 21.8 16.1 57 5.5 ESE 28 43 15 23 1013.9 1013.9 0.0
01/02:30pm 25.0 21.4 16.2 58 5.4 ESE 30 41 16 22 1014.3 - 0.0
01/02:00pm 25.5 22.0 16.4 57 5.6 ESE 30 41 16 22 1014.6 - 0.0
01/01:30pm 25.8 22.2 16.2 55 5.9 ESE 30 41 16 22 1015.0 - 0.0
01/01:00pm 25.8 23.1 16.5 56 5.7 ESE 26 39 14 21 1015.3 - 0.0
01/12:30pm 25.7 22.4 16.0 55 5.9 ESE 28 35 15 19 1015.8 - 0.0
01/12:00pm 26.0 23.3 16.6 56 5.8 ESE 26 39 14 21 1016.3 1016.2 0.0
01/11:30am 26.0 22.8 16.4 55 5.9 ESE 28 41 15 22 1016.7 - 0.0
01/11:00am 25.7 23.2 16.2 55 5.8 ESE 24 41 13 22 1017.2 - 0.0
01/10:30am 25.2 23.6 16.6 59 5.3 SE 20 35 11 19 1017.5 - 0.0
01/10:00am 24.6 22.2 16.4 60 5.0 ESE 24 35 13 19 1017.5 - 0.0
01/09:30am 25.0 23.7 16.7 60 5.1 ESE 19 33 10 18 1017.4 - 0.0
01/09:00am 23.8 22.3 16.4 63 4.5 SE 19 32 10 17 1017.0 1016.9 0.0
01/08:30am 23.4 21.9 16.3 64 4.3 ESE 19 32 10 17 1016.7 - 0.0
01/08:00am 22.8 22.5 16.4 67 3.9 SE 13 28 7 15 1016.3 - 0.0
01/07:30am 21.8 22.3 16.5 72 3.2 SSE 9 15 5 8 1016.3 - 0.0
01/07:00am 20.4 21.1 16.2 77 2.5 SSE 7 11 4 6 1016.0 - 0.0
01/06:30am 20.0 20.7 16.0 78 2.4 SE 7 11 4 6 1015.7 - 0.0
01/06:00am 20.3 20.6 16.1 77 2.5 SE 9 15 5 8 1015.4 1015.3 0.0
01/05:30am 20.5 20.5 16.3 77 2.5 SE 11 20 6 11 1014.9 - 0.0
01/05:00am 20.6 20.4 16.6 78 2.4 SE 13 20 7 11 1014.8 - 0.0
01/04:30am 20.6 20.5 15.9 74 2.8 SE 11 20 6 11 1014.8 - 0.0
01/04:00am 20.6 20.2 16.1 75 2.7 SE 13 19 7 10 1014.7 - 0.0
01/03:30am 20.5 20.5 16.2 76 2.6 SE 11 17 6 9 1014.7 - 0.0
01/03:00am 20.6 20.5 16.1 75 2.7 SE 11 20 6 11 1014.7 1014.6 0.0
01/02:30am 21.0 20.8 15.8 72 3.1 SE 11 20 6 11 1014.9 - 0.0
01/02:00am 20.9 20.6 15.5 71 3.2 SE 11 19 6 10 1015.0 - 0.0
01/01:30am 21.5 20.4 15.4 68 3.6 SE 15 24 8 13 1015.2 - 0.0
01/01:00am 21.9 20.0 15.3 66 3.9 SE 19 30 10 16 1015.3 - 0.0
01/12:30am 21.7 19.9 15.5 68 3.7 ESE 19 32 10 17 1015.6 - 0.0
01/12:00am 21.8 20.1 15.8 68 3.6 ESE 19 30 10 16 1015.9 1016.0 0.0
 
Date/Time
EST
Temp
°C
App
Temp
°C
Dew
Point
Rel
Hum
%
Delta-T
°C
Wind Press
QNH
hPa
Press
MSL
hPa
Rain
since 9 am
mm
Dir
 
Spd
km/h
Gust
km/h
Spd
kts
Gust
kts
31/11:30pm 21.9 20.1 15.5 67 3.8 ESE 19 28 10 15 1016.1 - 0.0
31/11:00pm 22.0 20.4 16.0 68 3.6 ESE 19 28 10 15 1016.1 - 0.0
31/10:30pm 21.9 20.1 16.1 69 3.5 ESE 20 35 11 19 1016.1 - 0.0
31/10:00pm 22.1 20.0 16.1 69 3.6 ESE 22 35 12 19 1016.0 - 0.0
31/09:30pm 22.0 20.4 16.6 71 3.3 ESE 20 32 11 17 1016.0 - 0.0
31/09:00pm 22.1 20.3 15.9 68 3.7 ESE 20 35 11 19 1015.8 1015.8 0.0
31/08:30pm 22.2 20.5 15.7 66 3.9 ESE 19 33 10 18 1015.6 - 0.0
31/08:00pm 22.0 20.4 14.9 64 4.2 ESE 17 30 9 16 1015.3 - 0.0
31/07:30pm 22.1 20.6 15.2 65 4.1 ESE 17 24 9 13 1014.9 - 0.0
31/07:00pm 22.2 20.1 14.7 62 4.4 ESE 19 33 10 18 1014.5 - 0.0
31/06:30pm 21.9 20.0 15.2 65 4.0 ESE 19 30 10 16 1014.1 - 0.0
31/06:00pm 22.5 20.4 15.3 63 4.3 SE 20 32 11 17 1013.7 1013.7 0.0
31/05:30pm 22.9 20.3 15.9 64 4.2 ESE 24 35 13 19 1013.4 - 0.0
31/05:00pm 23.3 20.1 16.2 64 4.3 ESE 28 44 15 24 1013.2 - 0.0
31/04:30pm 24.0 20.6 15.9 60 4.9 ESE 28 41 15 22 1013.0 - 0.0
31/04:00pm 23.8 21.0 16.4 63 4.5 SE 26 43 14 23 1012.9 - 0.0
31/03:30pm 24.5 21.4 16.5 61 4.9 SE 28 41 15 22 1012.8 - 0.0
31/03:00pm 24.8 21.1 16.9 61 4.9 ESE 32 48 17 26 1012.9 1012.9 0.0
31/02:31pm 25.4 22.5 17.0 59 5.2 ESE 28 46 15 25 1013.2 - 0.0
31/02:30pm 25.5 22.2 16.9 59 5.3 ESE 30 46 16 25 1013.2 - 0.0
31/02:07pm 25.4 21.6 16.6 58 5.4 ESE 32 50 17 27 1013.4 - 0.0
31/02:00pm 24.8 20.6 16.1 58 5.3 ESE 33 44 18 24 1013.5 - 0.0
31/01:30pm 25.4 21.1 15.9 55 5.8 E 33 44 18 24 1013.8 - 0.0
31/01:00pm 26.1 23.1 15.8 53 6.3 ESE 26 44 14 24 1014.1 - 0.0
31/12:30pm 25.6 22.2 15.7 54 6.0 ESE 28 41 15 22 1014.5 - 0.0
31/12:00pm 25.2 21.8 15.8 56 5.7 ESE 28 41 15 22 1014.9 1015.0 0.0
31/11:30am 25.1 21.7 15.7 56 5.7 ESE 28 37 15 20 1015.4 - 0.0
31/11:00am 25.2 22.5 15.6 55 5.8 SE 24 39 13 21 1016.0 - 0.0
31/10:30am 25.0 22.9 16.1 57 5.4 SE 22 35 12 19 1016.5 - 0.0
31/10:00am 24.1 22.4 16.2 61 4.8 SE 20 32 11 17 1016.7 - 0.0
31/09:30am 24.5 22.6 15.7 58 5.3 ESE 20 33 11 18 1016.8 - 0.0
31/09:00am 23.8 21.8 15.5 59 5.0 ESE 20 28 11 15 1016.8 1016.7 0.2
31/08:30am 22.7 24.1 16.4 67 3.8 W 4 7 2 4 1016.5 - 0.2
31/08:00am 21.3 22.2 16.1 72 3.1 W 6 9 3 5 1016.2 - 0.2
31/07:30am 19.4 20.3 16.2 82 1.9 W 6 7 3 4 1016.1 - 0.2

Other Formats:

Comma delimited format used in spreadsheet applications
http://www.bom.gov.au/fwo/IDQ60801/IDQ60801.95283.axf

JavaScript Object Notation format (JSON) in row-major order
http://www.bom.gov.au/fwo/IDQ60801/IDQ60801.95283.json